Historyczne dane pomiarowe

Dodano dane terminowe – wersja testowa.

Dane z okresu 1951-2019

Wersja bazy: 1.34 [2019-03-16, lista zmian], aktualizacja planowana na 2019-04-15

Dane meteo z obszaru Polski uzyskane na podstawie danych udostępnionych przez Instytut Meteorologii i Gospodarki Wodnej – Państwowy Instytut Badawczy.

 

Wybierz Datę:    

       

TemperaturaWilgotnośćWiatrCiśnienieOpadyŚniegCzas trwania zjawisk
 Stacja t tx tn tng RH VA  wxwx mslp ppp RRR   cm mm wxwxwxwxwxwxwx
1961-08-14 13.8 19.7 7.1 4.3 82.3- 6.3 0.7---- 0.0------------
1961-08-13 12.9 18.6 12.0 13.6 90.0- 8.0 1.7---- 8.8------------
1961-08-12 19.9 25.6 16.5 15.2 85.0- 6.7 3.0---- 15.2------------
1961-08-11 24.4 34.4 17.3 15.2 71.3- 3.0 3.7---- 0.0------------
1961-08-10 25.2 32.5 17.3 15.7 73.8- 1.0 0.7---- 0.0------------
1961-08-09 21.8 28.9 15.8 13.6 85.0- 4.0 1.0---- 30.1------------
1961-08-08 22.1 27.3 18.2 16.7 78.3- 5.0 2.3---- 0.0------------
1961-08-07 23.8 32.1 17.3 12.6 67.8- 1.7 1.0---- 0.0------------
1961-08-06 22.7 30.9 11.8 9.6 68.8- 1.0 1.7---- 0.0------------
1961-08-05 18.6 24.6 14.3 12.7 75.8- 4.3 1.0---- 0.0------------
1961-08-04 16.3 20.5 12.0 9.9 81.5- 4.7 0.0---- 0.0------------
1961-08-03 16.7 21.9 13.6 12.8 89.3- 8.0 1.0---- 7.9------------
1961-08-02 18.7 27.4 7.8 6.1 77.3- 1.0 0.3---- 0.0------------
1961-08-01 15.7 23.0 9.2 5.4 75.5- 3.7 1.3---- 0.0------------
1961-07-31 13.8 17.5 10.0 9.9 80.5- 7.7 2.3---- 0.2------------
1961-07-30 11.5 12.3 10.7 11.1 90.8- 8.0 2.3---- 25.9------------
1961-07-29 13.2 19.5 11.8 13.0 93.5- 8.0 1.0---- 32.0------------
1961-07-28 20.7 27.5 15.9 13.3 77.5- 6.7 0.0---- 4.0------------
1961-07-27 20.8 27.5 11.5 8.0 66.8- 4.0 1.0---- 1.8------------
1961-07-26 17.1 22.7 10.6 7.6 61.8- 2.7 0.3---- 0.0------------
1961-07-25 14.2 16.6 10.5 7.6 67.3- 6.7 1.3---- 0.0------------
1961-07-24 15.1 18.1 13.1 10.9 77.5- 7.7 1.7---- 0.0------------
1961-07-23 15.5 20.2 10.4 6.4 85.0- 6.3 0.7---- 0.3------------
1961-07-22 15.5 18.9 12.1 8.5 79.0- 6.0 1.3---- 0.0------------
1961-07-21 14.9 20.1 8.9 6.1 81.8- 6.0 0.7---- 0.3------------
1961-07-20 13.6 17.2 8.8 6.7 89.3- 8.0 0.0---- 12.2------------
1961-07-19 13.4 19.6 10.1 7.5 88.0- 7.3 1.3---- 14.6------------
1961-07-18 14.9 19.8 8.1 5.4 77.0- 4.3 0.7---- 0.0------------
1961-07-17 16.2 23.1 13.4 12.7 81.3- 5.3 2.0---- 17.5------------
1961-07-16 18.7 23.0 14.9 12.3 67.8- 4.7 3.3---- 5.0------------
1961-07-15 18.7 24.9 10.0 6.9 72.3- 4.7 1.7---- 0.8------------
1961-07-14 15.1 19.6 12.8 10.4 71.3- 5.0 1.0---- 0.8------------
1961-07-13 20.5 28.4 15.5 11.0 74.0- 2.0 7.0---- 6.5------------
1961-07-12 20.6 28.5 9.6 7.0 67.5- 3.7 1.7---- 3.0------------
1961-07-11 15.6 21.7 10.6 9.3 73.0- 4.7 0.0---- 0.0------------
1961-07-10 14.7 18.8 11.5 7.5 78.3- 7.7 3.0---- 2.7------------
1961-07-09 15.9 23.0 10.9 9.3 72.3- 6.0 2.0---- 1.7------------
1961-07-08 15.5 21.0 9.2 5.9 74.0- 3.7 0.7---- 0.0------------
1961-07-07 13.6 18.1 6.6 3.4 70.0- 6.0 0.0---- 0.0------------
1961-07-06 12.5 18.0 6.8 3.6 71.5- 4.0 1.3---- 0.0------------
1961-07-05 14.4 18.8 12.3 13.0 73.3- 6.3 3.7---- 1.6------------
1961-07-04 21.0 31.1 12.8 9.9 81.8- 4.0 1.7---- 28.4------------
1961-07-03 21.4 30.1 9.7 6.3 67.0- 1.0 0.3---- 0.0------------
1961-07-02 19.9 27.9 9.7 7.6 68.8- 0.0 0.3---- 0.0------------
1961-07-01 19.2 26.5 9.5 7.3 71.5- 2.0 0.7---- 0.0------------
1961-06-30 17.7 23.0 12.3 8.5 73.0- 2.7 1.0---- 0.0------------
1961-06-29 15.8 20.7 7.4 4.6 71.5- 5.3 1.7---- 0.0------------
1961-06-28 14.6 21.7 12.8 15.7 78.5- 6.7 4.7---- 4.1------------
1961-06-27 23.2 32.5 13.9 12.5 58.5- 2.3 2.0---- 5.6------------
1961-06-26 22.0 31.4 12.3 9.5 75.3- 4.3 0.7---- 8.2------------
1961-06-25 22.0 30.2 9.9 6.2 68.3- 1.0 1.3---- 0.0------------
1961-06-24 18.8 25.5 9.5 7.2 67.0- 4.7 2.3---- 0.0------------
1961-06-23 19.1 23.7 16.0 12.4 73.0- 3.7 2.0---- 0.0------------
1961-06-22 19.7 26.8 10.5 7.6 66.8- 2.3 0.7---- 4.1------------
1961-06-21 17.5 25.8 6.3 3.9 64.3- 1.7 0.7---- 0.0------------
1961-06-20 16.4 20.3 14.3 14.0 60.5- 5.0 1.0---- 0.0------------
1961-06-19 20.3 28.3 11.8 9.1 69.5- 4.0 0.0---- 0.1------------
1961-06-18 19.0 26.3 8.6 5.6 71.5- 3.7 0.7---- 0.0------------
1961-06-17 15.9 22.5 6.8 4.6 74.5- 1.7 0.3---- 0.0------------
1961-06-16 15.1 19.7 10.2 7.9 75.3- 3.0 0.0---- 0.0------------
371.1 ms

 

Źródłem pochodzenia danych jest Instytut Meteorologii i Gospodarki Wodnej – Państwowy Instytut Badawczy. Dane Instytutu Meteorologii i Gospodarki Wodnej – Państwowego Instytutu Badawczego zostały przetworzone.

Dane źródłowe można odnaleźć na stronie https://dane.imgw.pl